sensor_id;sensor_type;location;lat;lon;timestamp;P1;durP1;ratioP1;P2;durP2;ratioP2
2488;SDS011;1255;48.716;9.124;2022-10-18T00:00:59;3.30;;;2.97;;
2488;SDS011;1255;48.716;9.124;2022-10-18T00:03:26;3.03;;;2.73;;
2488;SDS011;1255;48.716;9.124;2022-10-18T00:05:53;3.13;;;2.80;;
2488;SDS011;1255;48.716;9.124;2022-10-18T00:08:19;3.20;;;2.47;;
2488;SDS011;1255;48.716;9.124;2022-10-18T00:10:46;2.43;;;2.23;;
2488;SDS011;1255;48.716;9.124;2022-10-18T00:13:13;6.23;;;2.70;;
2488;SDS011;1255;48.716;9.124;2022-10-18T00:15:47;3.30;;;2.33;;
2488;SDS011;1255;48.716;9.124;2022-10-18T00:18:15;3.00;;;2.57;;
2488;SDS011;1255;48.716;9.124;2022-10-18T00:20:42;3.60;;;2.70;;
2488;SDS011;1255;48.716;9.124;2022-10-18T00:23:09;5.30;;;2.90;;
2488;SDS011;1255;48.716;9.124;2022-10-18T00:25:35;4.20;;;2.50;;
2488;SDS011;1255;48.716;9.124;2022-10-18T00:28:02;4.67;;;2.73;;
2488;SDS011;1255;48.716;9.124;2022-10-18T00:30:29;2.50;;;2.10;;
2488;SDS011;1255;48.716;9.124;2022-10-18T00:32:57;3.77;;;2.93;;
2488;SDS011;1255;48.716;9.124;2022-10-18T00:35:24;3.43;;;2.63;;
2488;SDS011;1255;48.716;9.124;2022-10-18T00:37:51;5.53;;;3.40;;
2488;SDS011;1255;48.716;9.124;2022-10-18T00:40:17;3.50;;;3.20;;
2488;SDS011;1255;48.716;9.124;2022-10-18T00:42:44;3.30;;;3.00;;
2488;SDS011;1255;48.716;9.124;2022-10-18T00:45:15;5.05;;;2.97;;
2488;SDS011;1255;48.716;9.124;2022-10-18T00:47:45;3.10;;;2.80;;
2488;SDS011;1255;48.716;9.124;2022-10-18T00:50:18;3.03;;;2.73;;
2488;SDS011;1255;48.716;9.124;2022-10-18T00:52:47;3.40;;;3.10;;
2488;SDS011;1255;48.716;9.124;2022-10-18T00:55:16;4.87;;;3.37;;
2488;SDS011;1255;48.716;9.124;2022-10-18T00:57:43;6.20;;;3.10;;
2488;SDS011;1255;48.716;9.124;2022-10-18T01:00:11;3.33;;;2.90;;
2488;SDS011;1255;48.716;9.124;2022-10-18T01:02:39;3.43;;;2.60;;
2488;SDS011;1255;48.716;9.124;2022-10-18T01:05:09;6.83;;;3.10;;
2488;SDS011;1255;48.716;9.124;2022-10-18T01:07:44;4.33;;;2.90;;
2488;SDS011;1255;48.716;9.124;2022-10-18T01:10:29;2.87;;;2.60;;
2488;SDS011;1255;48.716;9.124;2022-10-18T01:13:09;2.63;;;2.43;;
2488;SDS011;1255;48.716;9.124;2022-10-18T01:15:46;3.07;;;2.30;;
2488;SDS011;1255;48.716;9.124;2022-10-18T01:18:21;3.30;;;2.73;;
2488;SDS011;1255;48.716;9.124;2022-10-18T01:20:57;2.47;;;2.27;;
2488;SDS011;1255;48.716;9.124;2022-10-18T01:23:51;2.97;;;2.67;;
2488;SDS011;1255;48.716;9.124;2022-10-18T01:26:39;4.40;;;2.60;;
2488;SDS011;1255;48.716;9.124;2022-10-18T01:29:20;3.00;;;2.70;;
2488;SDS011;1255;48.716;9.124;2022-10-18T01:31:57;3.73;;;2.53;;
2488;SDS011;1255;48.716;9.124;2022-10-18T01:34:25;2.53;;;2.33;;
2488;SDS011;1255;48.716;9.124;2022-10-18T01:36:56;3.20;;;2.77;;
2488;SDS011;1255;48.716;9.124;2022-10-18T01:39:27;3.37;;;2.77;;
2488;SDS011;1255;48.716;9.124;2022-10-18T01:41:57;2.83;;;2.53;;
2488;SDS011;1255;48.716;9.124;2022-10-18T01:44:28;2.70;;;2.50;;
2488;SDS011;1255;48.716;9.124;2022-10-18T01:46:59;3.10;;;2.80;;
2488;SDS011;1255;48.716;9.124;2022-10-18T01:49:26;2.43;;;2.23;;
2488;SDS011;1255;48.716;9.124;2022-10-18T01:51:53;2.60;;;2.40;;
2488;SDS011;1255;48.716;9.124;2022-10-18T01:54:20;2.47;;;2.27;;
2488;SDS011;1255;48.716;9.124;2022-10-18T01:56:52;3.77;;;2.73;;
2488;SDS011;1255;48.716;9.124;2022-10-18T01:59:24;2.50;;;2.30;;
2488;SDS011;1255;48.716;9.124;2022-10-18T02:02:11;2.80;;;2.57;;
2488;SDS011;1255;48.716;9.124;2022-10-18T02:04:45;3.23;;;2.50;;
2488;SDS011;1255;48.716;9.124;2022-10-18T02:07:19;2.77;;;2.57;;
2488;SDS011;1255;48.716;9.124;2022-10-18T02:09:55;2.40;;;2.20;;
2488;SDS011;1255;48.716;9.124;2022-10-18T02:12:27;3.13;;;2.83;;
2488;SDS011;1255;48.716;9.124;2022-10-18T02:14:57;2.73;;;2.20;;
2488;SDS011;1255;48.716;9.124;2022-10-18T02:17:28;3.40;;;2.50;;
2488;SDS011;1255;48.716;9.124;2022-10-18T02:19:57;3.27;;;2.47;;
2488;SDS011;1255;48.716;9.124;2022-10-18T02:22:26;3.77;;;2.90;;
2488;SDS011;1255;48.716;9.124;2022-10-18T02:24:57;4.00;;;2.57;;
2488;SDS011;1255;48.716;9.124;2022-10-18T02:27:27;6.07;;;2.40;;
2488;SDS011;1255;48.716;9.124;2022-10-18T02:29:54;3.13;;;2.87;;
2488;SDS011;1255;48.716;9.124;2022-10-18T02:32:24;4.70;;;2.70;;
2488;SDS011;1255;48.716;9.124;2022-10-18T02:34:57;2.80;;;2.30;;
2488;SDS011;1255;48.716;9.124;2022-10-18T02:37:27;3.50;;;2.43;;
2488;SDS011;1255;48.716;9.124;2022-10-18T02:39:59;8.33;;;2.90;;
2488;SDS011;1255;48.716;9.124;2022-10-18T02:42:31;2.50;;;2.27;;
2488;SDS011;1255;48.716;9.124;2022-10-18T02:45:00;4.00;;;3.20;;
2488;SDS011;1255;48.716;9.124;2022-10-18T02:47:27;4.23;;;2.70;;
2488;SDS011;1255;48.716;9.124;2022-10-18T02:49:53;2.87;;;2.20;;
2488;SDS011;1255;48.716;9.124;2022-10-18T02:52:22;3.23;;;2.93;;
2488;SDS011;1255;48.716;9.124;2022-10-18T02:54:48;3.67;;;2.93;;
2488;SDS011;1255;48.716;9.124;2022-10-18T02:57:15;2.37;;;2.17;;
2488;SDS011;1255;48.716;9.124;2022-10-18T02:59:42;2.90;;;2.40;;
2488;SDS011;1255;48.716;9.124;2022-10-18T03:02:08;3.37;;;2.13;;
2488;SDS011;1255;48.716;9.124;2022-10-18T03:04:35;3.80;;;2.27;;
2488;SDS011;1255;48.716;9.124;2022-10-18T03:07:03;3.63;;;2.50;;
2488;SDS011;1255;48.716;9.124;2022-10-18T03:09:30;2.47;;;2.27;;
2488;SDS011;1255;48.716;9.124;2022-10-18T03:11:57;2.80;;;2.43;;
2488;SDS011;1255;48.716;9.124;2022-10-18T03:14:24;5.87;;;2.47;;
2488;SDS011;1255;48.716;9.124;2022-10-18T03:16:50;3.40;;;2.60;;
2488;SDS011;1255;48.716;9.124;2022-10-18T03:19:17;3.23;;;2.93;;
2488;SDS011;1255;48.716;9.124;2022-10-18T03:21:44;4.10;;;2.73;;
2488;SDS011;1255;48.716;9.124;2022-10-18T03:24:12;2.80;;;2.53;;
2488;SDS011;1255;48.716;9.124;2022-10-18T03:26:39;2.63;;;2.43;;
2488;SDS011;1255;48.716;9.124;2022-10-18T03:29:05;3.10;;;2.67;;
2488;SDS011;1255;48.716;9.124;2022-10-18T03:31:32;2.87;;;2.67;;
2488;SDS011;1255;48.716;9.124;2022-10-18T03:33:59;2.40;;;2.20;;
2488;SDS011;1255;48.716;9.124;2022-10-18T03:36:26;3.03;;;2.67;;
2488;SDS011;1255;48.716;9.124;2022-10-18T03:38:52;2.60;;;2.40;;
2488;SDS011;1255;48.716;9.124;2022-10-18T03:41:21;3.40;;;3.10;;
2488;SDS011;1255;48.716;9.124;2022-10-18T03:43:47;2.37;;;2.17;;
2488;SDS011;1255;48.716;9.124;2022-10-18T03:46:14;2.27;;;2.07;;
2488;SDS011;1255;48.716;9.124;2022-10-18T03:48:41;3.00;;;2.70;;
2488;SDS011;1255;48.716;9.124;2022-10-18T03:51:08;2.43;;;2.23;;
2488;SDS011;1255;48.716;9.124;2022-10-18T03:53:34;2.37;;;2.17;;
2488;SDS011;1255;48.716;9.124;2022-10-18T03:56:01;3.20;;;2.50;;
2488;SDS011;1255;48.716;9.124;2022-10-18T03:58:29;5.73;;;2.57;;
2488;SDS011;1255;48.716;9.124;2022-10-18T04:00:56;2.90;;;2.60;;
2488;SDS011;1255;48.716;9.124;2022-10-18T04:03:23;4.20;;;2.53;;
2488;SDS011;1255;48.716;9.124;2022-10-18T04:05:49;2.47;;;2.27;;
2488;SDS011;1255;48.716;9.124;2022-10-18T04:08:16;4.43;;;2.40;;
2488;SDS011;1255;48.716;9.124;2022-10-18T04:10:44;4.37;;;2.60;;
2488;SDS011;1255;48.716;9.124;2022-10-18T04:13:11;2.50;;;2.30;;
2488;SDS011;1255;48.716;9.124;2022-10-18T04:15:39;3.07;;;2.70;;
2488;SDS011;1255;48.716;9.124;2022-10-18T04:18:06;2.83;;;2.57;;
2488;SDS011;1255;48.716;9.124;2022-10-18T04:20:32;3.77;;;3.10;;
2488;SDS011;1255;48.716;9.124;2022-10-18T04:22:59;4.40;;;2.47;;
2488;SDS011;1255;48.716;9.124;2022-10-18T04:25:26;2.47;;;2.23;;
2488;SDS011;1255;48.716;9.124;2022-10-18T04:27:53;2.90;;;2.30;;
2488;SDS011;1255;48.716;9.124;2022-10-18T04:30:20;2.93;;;2.27;;
2488;SDS011;1255;48.716;9.124;2022-10-18T04:32:48;6.00;;;2.70;;
2488;SDS011;1255;48.716;9.124;2022-10-18T04:35:15;2.60;;;2.40;;
2488;SDS011;1255;48.716;9.124;2022-10-18T04:37:43;4.00;;;2.53;;
2488;SDS011;1255;48.716;9.124;2022-10-18T04:40:10;2.50;;;2.30;;
2488;SDS011;1255;48.716;9.124;2022-10-18T04:42:37;2.90;;;2.40;;
2488;SDS011;1255;48.716;9.124;2022-10-18T04:45:04;3.00;;;2.70;;
2488;SDS011;1255;48.716;9.124;2022-10-18T04:47:32;2.17;;;1.97;;
2488;SDS011;1255;48.716;9.124;2022-10-18T04:50:00;2.50;;;2.10;;
2488;SDS011;1255;48.716;9.124;2022-10-18T04:52:27;3.60;;;2.23;;
2488;SDS011;1255;48.716;9.124;2022-10-18T04:54:53;3.17;;;2.30;;
2488;SDS011;1255;48.716;9.124;2022-10-18T04:57:20;2.70;;;2.50;;
2488;SDS011;1255;48.716;9.124;2022-10-18T04:59:47;3.30;;;2.57;;
2488;SDS011;1255;48.716;9.124;2022-10-18T05:02:14;3.73;;;2.57;;
2488;SDS011;1255;48.716;9.124;2022-10-18T05:04:40;6.27;;;3.20;;
2488;SDS011;1255;48.716;9.124;2022-10-18T05:07:08;2.40;;;2.20;;
2488;SDS011;1255;48.716;9.124;2022-10-18T05:09:35;3.70;;;2.60;;
2488;SDS011;1255;48.716;9.124;2022-10-18T05:12:02;2.60;;;2.20;;
2488;SDS011;1255;48.716;9.124;2022-10-18T05:14:29;2.90;;;2.60;;
2488;SDS011;1255;48.716;9.124;2022-10-18T05:16:56;2.30;;;2.10;;
2488;SDS011;1255;48.716;9.124;2022-10-18T05:19:22;2.43;;;2.10;;
2488;SDS011;1255;48.716;9.124;2022-10-18T05:21:49;2.60;;;2.40;;
2488;SDS011;1255;48.716;9.124;2022-10-18T05:24:17;3.07;;;2.87;;
2488;SDS011;1255;48.716;9.124;2022-10-18T05:26:44;3.50;;;2.67;;
2488;SDS011;1255;48.716;9.124;2022-10-18T05:29:11;4.50;;;2.60;;
2488;SDS011;1255;48.716;9.124;2022-10-18T05:31:37;2.53;;;2.33;;
2488;SDS011;1255;48.716;9.124;2022-10-18T05:34:04;3.10;;;2.80;;
2488;SDS011;1255;48.716;9.124;2022-10-18T05:36:31;3.27;;;2.40;;
2488;SDS011;1255;48.716;9.124;2022-10-18T05:41:30;3.10;;;2.63;;
2488;SDS011;1255;48.716;9.124;2022-10-18T05:43:57;3.97;;;3.00;;
2488;SDS011;1255;48.716;9.124;2022-10-18T05:46:24;3.30;;;2.63;;
2488;SDS011;1255;48.716;9.124;2022-10-18T05:48:50;2.80;;;2.40;;
2488;SDS011;1255;48.716;9.124;2022-10-18T05:51:17;3.47;;;2.83;;
2488;SDS011;1255;48.716;9.124;2022-10-18T05:53:44;2.80;;;2.57;;
2488;SDS011;1255;48.716;9.124;2022-10-18T05:56:11;3.33;;;2.70;;
2488;SDS011;1255;48.716;9.124;2022-10-18T05:58:39;3.83;;;2.50;;
2488;SDS011;1255;48.716;9.124;2022-10-18T06:01:08;2.60;;;2.40;;
2488;SDS011;1255;48.716;9.124;2022-10-18T06:03:35;2.33;;;2.13;;
2488;SDS011;1255;48.716;9.124;2022-10-18T06:06:02;2.60;;;2.40;;
2488;SDS011;1255;48.716;9.124;2022-10-18T06:08:31;3.10;;;2.50;;
2488;SDS011;1255;48.716;9.124;2022-10-18T06:10:59;2.80;;;2.50;;
2488;SDS011;1255;48.716;9.124;2022-10-18T06:13:30;3.20;;;2.83;;
2488;SDS011;1255;48.716;9.124;2022-10-18T06:15:58;4.53;;;2.57;;
2488;SDS011;1255;48.716;9.124;2022-10-18T06:18:25;2.70;;;2.50;;
2488;SDS011;1255;48.716;9.124;2022-10-18T06:20:55;3.03;;;2.73;;
2488;SDS011;1255;48.716;9.124;2022-10-18T06:23:22;3.03;;;2.70;;
2488;SDS011;1255;48.716;9.124;2022-10-18T06:25:49;4.10;;;2.60;;
2488;SDS011;1255;48.716;9.124;2022-10-18T06:28:15;2.93;;;2.47;;
2488;SDS011;1255;48.716;9.124;2022-10-18T06:30:42;4.10;;;2.80;;
2488;SDS011;1255;48.716;9.124;2022-10-18T06:33:11;2.80;;;2.50;;
2488;SDS011;1255;48.716;9.124;2022-10-18T06:35:37;2.93;;;2.73;;
2488;SDS011;1255;48.716;9.124;2022-10-18T06:38:04;2.20;;;2.00;;
2488;SDS011;1255;48.716;9.124;2022-10-18T06:40:31;2.73;;;2.53;;
2488;SDS011;1255;48.716;9.124;2022-10-18T06:43:01;6.00;;;2.93;;
2488;SDS011;1255;48.716;9.124;2022-10-18T06:45:30;4.10;;;2.20;;
2488;SDS011;1255;48.716;9.124;2022-10-18T06:47:59;2.80;;;2.53;;
2488;SDS011;1255;48.716;9.124;2022-10-18T06:50:27;3.00;;;2.67;;
2488;SDS011;1255;48.716;9.124;2022-10-18T06:52:54;3.27;;;2.30;;
2488;SDS011;1255;48.716;9.124;2022-10-18T06:55:21;4.13;;;2.63;;
2488;SDS011;1255;48.716;9.124;2022-10-18T06:57:49;2.87;;;2.30;;
2488;SDS011;1255;48.716;9.124;2022-10-18T07:00:16;3.03;;;2.80;;
2488;SDS011;1255;48.716;9.124;2022-10-18T07:02:43;3.00;;;2.70;;
2488;SDS011;1255;48.716;9.124;2022-10-18T07:05:10;2.53;;;2.33;;
2488;SDS011;1255;48.716;9.124;2022-10-18T07:07:39;4.70;;;3.20;;
2488;SDS011;1255;48.716;9.124;2022-10-18T07:10:06;3.57;;;2.40;;
2488;SDS011;1255;48.716;9.124;2022-10-18T07:12:34;3.40;;;2.80;;
2488;SDS011;1255;48.716;9.124;2022-10-18T07:15:01;4.40;;;2.67;;
2488;SDS011;1255;48.716;9.124;2022-10-18T07:17:28;2.87;;;2.40;;
2488;SDS011;1255;48.716;9.124;2022-10-18T07:19:56;2.93;;;2.73;;
2488;SDS011;1255;48.716;9.124;2022-10-18T07:22:23;3.53;;;3.00;;
2488;SDS011;1255;48.716;9.124;2022-10-18T07:24:51;3.93;;;2.30;;
2488;SDS011;1255;48.716;9.124;2022-10-18T07:27:19;4.67;;;2.80;;
2488;SDS011;1255;48.716;9.124;2022-10-18T07:29:46;3.03;;;2.17;;
2488;SDS011;1255;48.716;9.124;2022-10-18T07:32:14;3.23;;;2.27;;
2488;SDS011;1255;48.716;9.124;2022-10-18T07:34:40;3.27;;;2.57;;
2488;SDS011;1255;48.716;9.124;2022-10-18T07:37:07;3.57;;;2.50;;
2488;SDS011;1255;48.716;9.124;2022-10-18T07:39:34;4.90;;;2.53;;
2488;SDS011;1255;48.716;9.124;2022-10-18T07:42:02;3.00;;;2.80;;
2488;SDS011;1255;48.716;9.124;2022-10-18T07:44:29;3.57;;;2.90;;
2488;SDS011;1255;48.716;9.124;2022-10-18T07:46:55;3.73;;;2.23;;
2488;SDS011;1255;48.716;9.124;2022-10-18T07:49:22;2.70;;;2.50;;
2488;SDS011;1255;48.716;9.124;2022-10-18T07:51:49;2.40;;;2.20;;
2488;SDS011;1255;48.716;9.124;2022-10-18T07:54:16;2.50;;;2.30;;
2488;SDS011;1255;48.716;9.124;2022-10-18T07:56:42;3.87;;;2.83;;
2488;SDS011;1255;48.716;9.124;2022-10-18T07:59:11;4.33;;;3.23;;
2488;SDS011;1255;48.716;9.124;2022-10-18T08:01:37;2.30;;;2.10;;
2488;SDS011;1255;48.716;9.124;2022-10-18T08:04:04;3.50;;;2.80;;
2488;SDS011;1255;48.716;9.124;2022-10-18T08:06:31;2.50;;;2.30;;
2488;SDS011;1255;48.716;9.124;2022-10-18T08:08:58;2.03;;;1.83;;
2488;SDS011;1255;48.716;9.124;2022-10-18T08:11:24;3.03;;;2.40;;
2488;SDS011;1255;48.716;9.124;2022-10-18T08:13:52;2.73;;;2.50;;
2488;SDS011;1255;48.716;9.124;2022-10-18T08:16:21;3.10;;;2.80;;
2488;SDS011;1255;48.716;9.124;2022-10-18T08:18:49;2.50;;;2.30;;
2488;SDS011;1255;48.716;9.124;2022-10-18T08:21:16;4.50;;;2.80;;
2488;SDS011;1255;48.716;9.124;2022-10-18T08:23:44;3.50;;;2.73;;
2488;SDS011;1255;48.716;9.124;2022-10-18T08:26:11;3.00;;;2.70;;
2488;SDS011;1255;48.716;9.124;2022-10-18T08:28:39;2.47;;;2.27;;
2488;SDS011;1255;48.716;9.124;2022-10-18T08:31:07;3.30;;;2.67;;
2488;SDS011;1255;48.716;9.124;2022-10-18T08:33:37;2.67;;;2.47;;
2488;SDS011;1255;48.716;9.124;2022-10-18T08:36:05;3.03;;;2.83;;
2488;SDS011;1255;48.716;9.124;2022-10-18T08:38:33;3.10;;;2.47;;
2488;SDS011;1255;48.716;9.124;2022-10-18T08:41:01;3.97;;;2.60;;
2488;SDS011;1255;48.716;9.124;2022-10-18T08:43:44;3.27;;;2.83;;
2488;SDS011;1255;48.716;9.124;2022-10-18T08:46:16;3.10;;;2.57;;
2488;SDS011;1255;48.716;9.124;2022-10-18T08:48:44;3.60;;;2.80;;
2488;SDS011;1255;48.716;9.124;2022-10-18T08:51:26;2.53;;;2.13;;
2488;SDS011;1255;48.716;9.124;2022-10-18T08:53:55;2.70;;;2.50;;
2488;SDS011;1255;48.716;9.124;2022-10-18T08:56:31;5.07;;;3.40;;
2488;SDS011;1255;48.716;9.124;2022-10-18T08:59:00;2.57;;;2.37;;
2488;SDS011;1255;48.716;9.124;2022-10-18T09:01:29;3.77;;;2.57;;
2488;SDS011;1255;48.716;9.124;2022-10-18T09:04:10;2.80;;;2.50;;
2488;SDS011;1255;48.716;9.124;2022-10-18T09:06:51;2.30;;;2.10;;
2488;SDS011;1255;48.716;9.124;2022-10-18T09:09:31;5.13;;;2.53;;
2488;SDS011;1255;48.716;9.124;2022-10-18T09:12:07;3.30;;;2.67;;
2488;SDS011;1255;48.716;9.124;2022-10-18T09:17:47;3.40;;;2.43;;
2488;SDS011;1255;48.716;9.124;2022-10-18T09:20:28;4.23;;;2.60;;
2488;SDS011;1255;48.716;9.124;2022-10-18T09:23:01;3.17;;;2.87;;
2488;SDS011;1255;48.716;9.124;2022-10-18T09:25:36;3.00;;;2.40;;
2488;SDS011;1255;48.716;9.124;2022-10-18T09:28:13;4.20;;;2.60;;
2488;SDS011;1255;48.716;9.124;2022-10-18T09:30:46;2.50;;;2.30;;
2488;SDS011;1255;48.716;9.124;2022-10-18T09:33:24;2.60;;;2.17;;
2488;SDS011;1255;48.716;9.124;2022-10-18T09:35:57;2.33;;;2.13;;
2488;SDS011;1255;48.716;9.124;2022-10-18T09:38:27;4.30;;;2.60;;
2488;SDS011;1255;48.716;9.124;2022-10-18T09:40:57;2.50;;;2.30;;
2488;SDS011;1255;48.716;9.124;2022-10-18T09:43:35;2.27;;;2.07;;
2488;SDS011;1255;48.716;9.124;2022-10-18T09:46:07;2.70;;;2.50;;
2488;SDS011;1255;48.716;9.124;2022-10-18T09:48:37;4.03;;;2.20;;
2488;SDS011;1255;48.716;9.124;2022-10-18T09:51:12;5.17;;;2.47;;
2488;SDS011;1255;48.716;9.124;2022-10-18T09:53:50;2.57;;;2.37;;
2488;SDS011;1255;48.716;9.124;2022-10-18T09:56:27;2.80;;;2.47;;
2488;SDS011;1255;48.716;9.124;2022-10-18T09:58:55;2.90;;;2.07;;
2488;SDS011;1255;48.716;9.124;2022-10-18T10:01:23;4.00;;;2.30;;
2488;SDS011;1255;48.716;9.124;2022-10-18T10:03:52;3.53;;;2.13;;
2488;SDS011;1255;48.716;9.124;2022-10-18T10:06:24;3.60;;;2.40;;
2488;SDS011;1255;48.716;9.124;2022-10-18T10:08:54;2.70;;;2.40;;
2488;SDS011;1255;48.716;9.124;2022-10-18T10:11:25;4.10;;;2.60;;
2488;SDS011;1255;48.716;9.124;2022-10-18T10:13:58;5.83;;;2.50;;
2488;SDS011;1255;48.716;9.124;2022-10-18T10:16:34;2.97;;;2.13;;
2488;SDS011;1255;48.716;9.124;2022-10-18T10:19:14;2.20;;;1.90;;
2488;SDS011;1255;48.716;9.124;2022-10-18T10:21:44;4.20;;;2.37;;
2488;SDS011;1255;48.716;9.124;2022-10-18T10:24:23;3.90;;;2.73;;
2488;SDS011;1255;48.716;9.124;2022-10-18T10:26:57;3.30;;;2.30;;
2488;SDS011;1255;48.716;9.124;2022-10-18T10:29:46;2.87;;;2.60;;
2488;SDS011;1255;48.716;9.124;2022-10-18T10:32:18;3.33;;;2.40;;
2488;SDS011;1255;48.716;9.124;2022-10-18T10:34:46;2.90;;;2.60;;
2488;SDS011;1255;48.716;9.124;2022-10-18T10:37:24;2.47;;;2.27;;
2488;SDS011;1255;48.716;9.124;2022-10-18T10:40:13;4.87;;;2.57;;
2488;SDS011;1255;48.716;9.124;2022-10-18T10:42:53;2.70;;;2.50;;
2488;SDS011;1255;48.716;9.124;2022-10-18T10:45:29;2.70;;;2.43;;
2488;SDS011;1255;48.716;9.124;2022-10-18T10:48:06;2.53;;;2.33;;
2488;SDS011;1255;48.716;9.124;2022-10-18T10:50:46;2.40;;;2.20;;
2488;SDS011;1255;48.716;9.124;2022-10-18T10:56:05;3.57;;;2.83;;
2488;SDS011;1255;48.716;9.124;2022-10-18T10:58:38;2.20;;;2.00;;
2488;SDS011;1255;48.716;9.124;2022-10-18T11:01:16;3.27;;;2.40;;
2488;SDS011;1255;48.716;9.124;2022-10-18T11:03:49;3.00;;;2.30;;
2488;SDS011;1255;48.716;9.124;2022-10-18T11:09:23;4.07;;;2.90;;
2488;SDS011;1255;48.716;9.124;2022-10-18T11:12:11;2.80;;;2.43;;
2488;SDS011;1255;48.716;9.124;2022-10-18T11:14:44;3.77;;;2.93;;
2488;SDS011;1255;48.716;9.124;2022-10-18T11:17:18;2.37;;;1.90;;
2488;SDS011;1255;48.716;9.124;2022-10-18T11:19:55;3.00;;;2.70;;
2488;SDS011;1255;48.716;9.124;2022-10-18T11:22:31;2.50;;;2.30;;
2488;SDS011;1255;48.716;9.124;2022-10-18T11:25:03;2.53;;;2.33;;
2488;SDS011;1255;48.716;9.124;2022-10-18T11:27:31;2.57;;;2.37;;
2488;SDS011;1255;48.716;9.124;2022-10-18T11:30:13;4.07;;;2.20;;
2488;SDS011;1255;48.716;9.124;2022-10-18T11:32:52;3.13;;;2.50;;
2488;SDS011;1255;48.716;9.124;2022-10-18T11:35:30;2.60;;;2.40;;
2488;SDS011;1255;48.716;9.124;2022-10-18T11:38:05;4.40;;;2.77;;
2488;SDS011;1255;48.716;9.124;2022-10-18T11:40:59;2.57;;;2.37;;
2488;SDS011;1255;48.716;9.124;2022-10-18T11:43:40;2.40;;;2.20;;
2488;SDS011;1255;48.716;9.124;2022-10-18T11:46:17;3.90;;;2.00;;
2488;SDS011;1255;48.716;9.124;2022-10-18T11:48:54;4.10;;;2.03;;
2488;SDS011;1255;48.716;9.124;2022-10-18T11:51:39;1.83;;;1.67;;
2488;SDS011;1255;48.716;9.124;2022-10-18T11:54:17;2.70;;;2.33;;
2488;SDS011;1255;48.716;9.124;2022-10-18T11:57:00;2.57;;;2.30;;
2488;SDS011;1255;48.716;9.124;2022-10-18T11:59:36;2.63;;;2.43;;
2488;SDS011;1255;48.716;9.124;2022-10-18T12:02:15;3.20;;;2.90;;
2488;SDS011;1255;48.716;9.124;2022-10-18T12:04:57;4.57;;;2.83;;
2488;SDS011;1255;48.716;9.124;2022-10-18T12:07:26;2.70;;;2.50;;
2488;SDS011;1255;48.716;9.124;2022-10-18T12:09:57;2.80;;;2.60;;
2488;SDS011;1255;48.716;9.124;2022-10-18T12:12:28;6.00;;;2.80;;
2488;SDS011;1255;48.716;9.124;2022-10-18T12:15:00;3.30;;;2.83;;
2488;SDS011;1255;48.716;9.124;2022-10-18T12:17:31;3.50;;;3.00;;
2488;SDS011;1255;48.716;9.124;2022-10-18T12:20:03;3.60;;;2.30;;
2488;SDS011;1255;48.716;9.124;2022-10-18T12:22:35;3.93;;;2.63;;
2488;SDS011;1255;48.716;9.124;2022-10-18T12:25:08;2.50;;;2.10;;
2488;SDS011;1255;48.716;9.124;2022-10-18T12:27:40;3.20;;;2.13;;
2488;SDS011;1255;48.716;9.124;2022-10-18T12:30:16;2.77;;;1.57;;
2488;SDS011;1255;48.716;9.124;2022-10-18T12:32:49;1.90;;;1.60;;
2488;SDS011;1255;48.716;9.124;2022-10-18T12:35:21;2.70;;;2.10;;
2488;SDS011;1255;48.716;9.124;2022-10-18T12:37:53;1.90;;;1.70;;
2488;SDS011;1255;48.716;9.124;2022-10-18T12:40:30;3.70;;;1.63;;
2488;SDS011;1255;48.716;9.124;2022-10-18T12:43:02;2.00;;;1.50;;
2488;SDS011;1255;48.716;9.124;2022-10-18T12:45:34;2.37;;;1.60;;
2488;SDS011;1255;48.716;9.124;2022-10-18T12:48:25;3.40;;;1.40;;
2488;SDS011;1255;48.716;9.124;2022-10-18T12:50:56;1.63;;;1.53;;
2488;SDS011;1255;48.716;9.124;2022-10-18T12:53:25;1.60;;;1.50;;
2488;SDS011;1255;48.716;9.124;2022-10-18T12:55:53;1.70;;;1.40;;
2488;SDS011;1255;48.716;9.124;2022-10-18T12:58:23;1.40;;;1.30;;
2488;SDS011;1255;48.716;9.124;2022-10-18T13:00:55;2.30;;;1.60;;
2488;SDS011;1255;48.716;9.124;2022-10-18T13:03:36;1.43;;;1.33;;
2488;SDS011;1255;48.716;9.124;2022-10-18T13:06:05;1.90;;;1.80;;
2488;SDS011;1255;48.716;9.124;2022-10-18T13:08:36;2.07;;;1.63;;
2488;SDS011;1255;48.716;9.124;2022-10-18T13:14:02;7.13;;;1.50;;
2488;SDS011;1255;48.716;9.124;2022-10-18T13:17:00;4.97;;;2.10;;
2488;SDS011;1255;48.716;9.124;2022-10-18T13:19:37;2.00;;;1.90;;
2488;SDS011;1255;48.716;9.124;2022-10-18T13:22:14;1.83;;;1.40;;
2488;SDS011;1255;48.716;9.124;2022-10-18T13:24:53;2.87;;;1.67;;
2488;SDS011;1255;48.716;9.124;2022-10-18T13:27:30;2.03;;;1.83;;
2488;SDS011;1255;48.716;9.124;2022-10-18T13:30:13;1.90;;;1.70;;
2488;SDS011;1255;48.716;9.124;2022-10-18T13:32:56;1.67;;;1.57;;
2488;SDS011;1255;48.716;9.124;2022-10-18T13:38:32;1.80;;;1.70;;
2488;SDS011;1255;48.716;9.124;2022-10-18T13:41:08;2.00;;;1.70;;
2488;SDS011;1255;48.716;9.124;2022-10-18T13:49:54;1.80;;;1.70;;
2488;SDS011;1255;48.716;9.124;2022-10-18T13:52:36;1.40;;;1.30;;
2488;SDS011;1255;48.716;9.124;2022-10-18T13:55:23;2.20;;;1.80;;
2488;SDS011;1255;48.716;9.124;2022-10-18T13:58:03;1.50;;;1.40;;
2488;SDS011;1255;48.716;9.124;2022-10-18T14:00:39;1.60;;;1.50;;
2488;SDS011;1255;48.716;9.124;2022-10-18T14:06:07;1.47;;;1.37;;
2488;SDS011;1255;48.716;9.124;2022-10-18T14:08:39;4.30;;;1.83;;
2488;SDS011;1255;48.716;9.124;2022-10-18T14:11:11;2.03;;;1.47;;
2488;SDS011;1255;48.716;9.124;2022-10-18T14:13:44;1.67;;;1.57;;
2488;SDS011;1255;48.716;9.124;2022-10-18T14:16:20;1.60;;;1.47;;
2488;SDS011;1255;48.716;9.124;2022-10-18T14:18:58;1.60;;;1.50;;
2488;SDS011;1255;48.716;9.124;2022-10-18T14:21:34;1.40;;;1.30;;
2488;SDS011;1255;48.716;9.124;2022-10-18T14:24:08;1.87;;;1.50;;
2488;SDS011;1255;48.716;9.124;2022-10-18T14:26:42;2.80;;;1.60;;
2488;SDS011;1255;48.716;9.124;2022-10-18T14:29:15;1.60;;;1.50;;
2488;SDS011;1255;48.716;9.124;2022-10-18T14:31:48;1.93;;;1.23;;
2488;SDS011;1255;48.716;9.124;2022-10-18T14:34:18;2.30;;;1.57;;
2488;SDS011;1255;48.716;9.124;2022-10-18T14:36:47;1.57;;;1.47;;
2488;SDS011;1255;48.716;9.124;2022-10-18T14:39:16;1.50;;;1.40;;
2488;SDS011;1255;48.716;9.124;2022-10-18T14:41:48;1.70;;;1.53;;
2488;SDS011;1255;48.716;9.124;2022-10-18T14:44:18;1.97;;;1.77;;
2488;SDS011;1255;48.716;9.124;2022-10-18T14:46:46;1.83;;;1.73;;
2488;SDS011;1255;48.716;9.124;2022-10-18T14:49:15;3.67;;;1.67;;
2488;SDS011;1255;48.716;9.124;2022-10-18T14:51:43;4.00;;;1.90;;
2488;SDS011;1255;48.716;9.124;2022-10-18T14:54:15;2.70;;;1.53;;
2488;SDS011;1255;48.716;9.124;2022-10-18T14:56:44;2.43;;;2.23;;
2488;SDS011;1255;48.716;9.124;2022-10-18T14:59:12;3.03;;;1.77;;
2488;SDS011;1255;48.716;9.124;2022-10-18T15:01:50;1.60;;;1.50;;
2488;SDS011;1255;48.716;9.124;2022-10-18T15:04:18;2.30;;;1.80;;
2488;SDS011;1255;48.716;9.124;2022-10-18T15:06:47;2.37;;;1.80;;
2488;SDS011;1255;48.716;9.124;2022-10-18T15:09:17;2.50;;;1.83;;
2488;SDS011;1255;48.716;9.124;2022-10-18T15:11:47;2.97;;;2.10;;
2488;SDS011;1255;48.716;9.124;2022-10-18T15:14:15;2.40;;;2.20;;
2488;SDS011;1255;48.716;9.124;2022-10-18T15:16:44;1.60;;;1.50;;
2488;SDS011;1255;48.716;9.124;2022-10-18T15:19:29;2.23;;;2.03;;
2488;SDS011;1255;48.716;9.124;2022-10-18T15:21:58;2.20;;;2.00;;
2488;SDS011;1255;48.716;9.124;2022-10-18T15:24:34;2.90;;;2.13;;
2488;SDS011;1255;48.716;9.124;2022-10-18T15:27:07;3.07;;;2.30;;
2488;SDS011;1255;48.716;9.124;2022-10-18T15:29:38;1.83;;;1.73;;
2488;SDS011;1255;48.716;9.124;2022-10-18T15:32:12;2.30;;;2.00;;
2488;SDS011;1255;48.716;9.124;2022-10-18T15:34:41;2.30;;;2.10;;
2488;SDS011;1255;48.716;9.124;2022-10-18T15:37:23;2.63;;;1.93;;
2488;SDS011;1255;48.716;9.124;2022-10-18T15:40:18;2.07;;;1.97;;
2488;SDS011;1255;48.716;9.124;2022-10-18T15:43:00;2.70;;;2.20;;
2488;SDS011;1255;48.716;9.124;2022-10-18T15:45:29;2.30;;;2.10;;
2488;SDS011;1255;48.716;9.124;2022-10-18T15:48:12;2.50;;;2.30;;
2488;SDS011;1255;48.716;9.124;2022-10-18T15:50:44;2.87;;;2.30;;
2488;SDS011;1255;48.716;9.124;2022-10-18T15:53:22;2.60;;;2.40;;
2488;SDS011;1255;48.716;9.124;2022-10-18T15:56:03;2.27;;;2.07;;
2488;SDS011;1255;48.716;9.124;2022-10-18T15:58:36;2.70;;;2.20;;
2488;SDS011;1255;48.716;9.124;2022-10-18T16:01:06;2.33;;;2.13;;
2488;SDS011;1255;48.716;9.124;2022-10-18T16:03:39;2.53;;;2.33;;
2488;SDS011;1255;48.716;9.124;2022-10-18T16:06:07;3.33;;;2.30;;